VOHY/HYD METAR and TAF weather

Enter ICAO airport designator
Station Type Date Time Source
VOHY METAR 2019/06/17 06:30 UTC NOAA

VOHY 170630Z 29014KT 6000 SCT015 BKN100 34/22 Q1010 NOSIG


Station Type Date Time Source
VOHY Decoded METAR 2019/06/17 06:30 UTC NOAA

Hyderabad Airport, India (VOHY) 17-27N 078-28E 545M
Jun 17, 2019 - 02:30 AM EDT / 2019.06.17 0630 UTC
Wind: from the WNW (290 degrees) at 16 MPH (14 KT):0
Visibility: 3 mile(s):0
Sky conditions: mostly cloudy
Temperature: 93 F (34 C)
Heat index: 100.0 F (37.8 C):1
Dew Point: 71 F (22 C)
Relative Humidity: 49%
Pressure (altimeter): 29.83 in. Hg (1010 hPa)
ob: VOHY 170630Z 29014KT 6000 SCT015 BKN100 34/22 Q1010 NOSIG
cycle: 6

Station Type Date Time Source
VOHY TAF 2019/06/06 12:00 UTC NOAA

TAF VOHY 061100Z 0612/0621 290006KT 6000 SCT020 SCT100
TEMPO 0612/0619 160006KT 4000 HZ -TSRA SCT025 FEW030CB SCT080
TEMPO 0619/0621 25005KT 5000 DZ FEW030CB BKN080

Example: see airport list